sensor_id;sensor_type;location;lat;lon;timestamp;pressure;altitude;pressure_sealevel;temperature;humidity
65897;BME280;52677;50.898;10.854;2022-12-18T00:00:46;99896.28;;;-13.58;100.00
65897;BME280;52677;50.898;10.854;2022-12-18T00:02:47;99895.47;;;-13.59;100.00
65897;BME280;52677;50.898;10.854;2022-12-18T00:04:47;99895.53;;;-13.52;100.00
65897;BME280;52677;50.898;10.854;2022-12-18T00:06:47;99890.75;;;-13.57;100.00
65897;BME280;52677;50.898;10.854;2022-12-18T00:08:48;99889.94;;;-13.57;100.00
65897;BME280;52677;50.898;10.854;2022-12-18T00:10:48;99880.69;;;-13.62;100.00
65897;BME280;52677;50.898;10.854;2022-12-18T00:12:49;99891.25;;;-13.68;100.00
65897;BME280;52677;50.898;10.854;2022-12-18T00:14:49;99896.66;;;-13.62;100.00
65897;BME280;52677;50.898;10.854;2022-12-18T00:16:49;99894.72;;;-13.53;100.00
65897;BME280;52677;50.898;10.854;2022-12-18T00:18:51;99907.59;;;-13.56;100.00
65897;BME280;52677;50.898;10.854;2022-12-18T00:20:52;99905.47;;;-13.61;100.00
65897;BME280;52677;50.898;10.854;2022-12-18T00:22:53;99906.91;;;-13.80;100.00
65897;BME280;52677;50.898;10.854;2022-12-18T00:24:53;99919.38;;;-13.95;100.00
65897;BME280;52677;50.898;10.854;2022-12-18T00:26:54;99917.28;;;-14.14;100.00
65897;BME280;52677;50.898;10.854;2022-12-18T00:28:57;99919.03;;;-14.22;100.00
65897;BME280;52677;50.898;10.854;2022-12-18T00:31:01;99918.94;;;-14.28;100.00
65897;BME280;52677;50.898;10.854;2022-12-18T00:33:01;99917.81;;;-14.34;100.00
65897;BME280;52677;50.898;10.854;2022-12-18T00:35:03;99918.53;;;-14.40;100.00
65897;BME280;52677;50.898;10.854;2022-12-18T00:37:03;99918.50;;;-14.47;100.00
65897;BME280;52677;50.898;10.854;2022-12-18T00:39:04;99918.00;;;-14.50;100.00
65897;BME280;52677;50.898;10.854;2022-12-18T00:41:06;99911.44;;;-14.54;100.00
65897;BME280;52677;50.898;10.854;2022-12-18T00:43:06;99912.44;;;-14.55;100.00
65897;BME280;52677;50.898;10.854;2022-12-18T00:45:07;99918.47;;;-14.61;100.00
65897;BME280;52677;50.898;10.854;2022-12-18T00:47:07;99922.13;;;-14.62;100.00
65897;BME280;52677;50.898;10.854;2022-12-18T00:49:08;99933.59;;;-14.62;100.00
65897;BME280;52677;50.898;10.854;2022-12-18T00:51:08;99921.19;;;-14.69;100.00
65897;BME280;52677;50.898;10.854;2022-12-18T00:53:09;99924.03;;;-14.71;100.00
65897;BME280;52677;50.898;10.854;2022-12-18T00:55:10;99918.91;;;-14.72;100.00
65897;BME280;52677;50.898;10.854;2022-12-18T00:57:11;99928.34;;;-14.70;100.00
65897;BME280;52677;50.898;10.854;2022-12-18T00:59:11;99927.22;;;-14.76;100.00
65897;BME280;52677;50.898;10.854;2022-12-18T01:01:11;99933.53;;;-14.77;100.00
65897;BME280;52677;50.898;10.854;2022-12-18T01:03:14;99929.25;;;-14.78;100.00
65897;BME280;52677;50.898;10.854;2022-12-18T01:05:15;99932.72;;;-14.77;100.00
65897;BME280;52677;50.898;10.854;2022-12-18T01:07:15;99937.72;;;-14.82;100.00
65897;BME280;52677;50.898;10.854;2022-12-18T01:09:15;99934.25;;;-14.83;100.00
65897;BME280;52677;50.898;10.854;2022-12-18T01:11:19;99933.69;;;-14.93;100.00
65897;BME280;52677;50.898;10.854;2022-12-18T01:13:19;99934.75;;;-15.02;100.00
65897;BME280;52677;50.898;10.854;2022-12-18T01:15:20;99925.47;;;-15.06;100.00
65897;BME280;52677;50.898;10.854;2022-12-18T01:17:21;99937.94;;;-15.07;100.00
65897;BME280;52677;50.898;10.854;2022-12-18T01:19:21;99935.28;;;-15.07;100.00
65897;BME280;52677;50.898;10.854;2022-12-18T01:21:23;99939.41;;;-15.04;100.00
65897;BME280;52677;50.898;10.854;2022-12-18T01:23:26;99940.25;;;-15.04;100.00
65897;BME280;52677;50.898;10.854;2022-12-18T01:25:27;99948.66;;;-15.00;100.00
65897;BME280;52677;50.898;10.854;2022-12-18T01:27:27;99941.91;;;-15.02;100.00
65897;BME280;52677;50.898;10.854;2022-12-18T01:29:27;99945.75;;;-15.05;100.00
65897;BME280;52677;50.898;10.854;2022-12-18T01:31:31;99945.56;;;-15.04;100.00
65897;BME280;52677;50.898;10.854;2022-12-18T01:33:32;99957.69;;;-15.09;100.00
65897;BME280;52677;50.898;10.854;2022-12-18T01:35:32;99952.75;;;-15.12;100.00
65897;BME280;52677;50.898;10.854;2022-12-18T01:37:32;99959.53;;;-15.10;100.00
65897;BME280;52677;50.898;10.854;2022-12-18T01:39:33;99951.75;;;-15.11;100.00
65897;BME280;52677;50.898;10.854;2022-12-18T01:41:34;99954.75;;;-15.14;100.00
65897;BME280;52677;50.898;10.854;2022-12-18T01:43:55;99953.63;;;-15.20;100.00
65897;BME280;52677;50.898;10.854;2022-12-18T01:45:59;99967.25;;;-15.23;100.00
65897;BME280;52677;50.898;10.854;2022-12-18T01:48:02;99964.44;;;-15.21;100.00
65897;BME280;52677;50.898;10.854;2022-12-18T01:52:09;99963.88;;;-15.17;100.00
65897;BME280;52677;50.898;10.854;2022-12-18T01:54:09;99957.25;;;-15.13;100.00
65897;BME280;52677;50.898;10.854;2022-12-18T01:56:13;99952.81;;;-15.20;100.00
65897;BME280;52677;50.898;10.854;2022-12-18T01:58:15;99955.03;;;-15.09;100.00
65897;BME280;52677;50.898;10.854;2022-12-18T02:00:19;99959.91;;;-15.13;100.00
65897;BME280;52677;50.898;10.854;2022-12-18T02:02:20;99957.66;;;-15.01;100.00
65897;BME280;52677;50.898;10.854;2022-12-18T02:04:23;99955.94;;;-14.94;100.00
65897;BME280;52677;50.898;10.854;2022-12-18T02:06:30;99960.88;;;-14.91;100.00
65897;BME280;52677;50.898;10.854;2022-12-18T02:10:57;99963.47;;;-14.83;100.00
65897;BME280;52677;50.898;10.854;2022-12-18T02:15:15;99964.09;;;-14.72;100.00
65897;BME280;52677;50.898;10.854;2022-12-18T02:17:21;99954.22;;;-14.64;100.00
65897;BME280;52677;50.898;10.854;2022-12-18T02:24:30;99953.34;;;-14.79;100.00
65897;BME280;52677;50.898;10.854;2022-12-18T02:26:37;99952.56;;;-14.88;100.00
65897;BME280;52677;50.898;10.854;2022-12-18T02:28:45;99951.31;;;-15.00;100.00
65897;BME280;52677;50.898;10.854;2022-12-18T02:30:48;99951.69;;;-15.03;100.00
65897;BME280;52677;50.898;10.854;2022-12-18T02:32:52;99951.50;;;-15.01;100.00
65897;BME280;52677;50.898;10.854;2022-12-18T02:34:55;99947.38;;;-15.04;100.00
65897;BME280;52677;50.898;10.854;2022-12-18T02:36:59;99951.88;;;-15.05;100.00
65897;BME280;52677;50.898;10.854;2022-12-18T02:39:03;99950.09;;;-15.12;100.00
65897;BME280;52677;50.898;10.854;2022-12-18T02:41:06;99940.19;;;-15.18;100.00
65897;BME280;52677;50.898;10.854;2022-12-18T02:43:11;99943.84;;;-15.19;100.00
65897;BME280;52677;50.898;10.854;2022-12-18T02:45:12;99945.84;;;-15.21;100.00
65897;BME280;52677;50.898;10.854;2022-12-18T02:47:14;99953.00;;;-15.22;100.00
65897;BME280;52677;50.898;10.854;2022-12-18T02:49:26;99950.34;;;-15.22;100.00
65897;BME280;52677;50.898;10.854;2022-12-18T02:51:43;99945.53;;;-15.26;100.00
65897;BME280;52677;50.898;10.854;2022-12-18T02:53:53;99956.16;;;-15.26;100.00
65897;BME280;52677;50.898;10.854;2022-12-18T02:56:07;99955.69;;;-15.30;100.00
65897;BME280;52677;50.898;10.854;2022-12-18T02:58:16;99949.53;;;-15.31;100.00
65897;BME280;52677;50.898;10.854;2022-12-18T03:00:23;99944.41;;;-15.32;100.00
65897;BME280;52677;50.898;10.854;2022-12-18T03:02:32;99951.03;;;-15.28;100.00
65897;BME280;52677;50.898;10.854;2022-12-18T03:04:50;99955.09;;;-15.17;100.00
65897;BME280;52677;50.898;10.854;2022-12-18T03:06:57;99942.66;;;-14.94;100.00
65897;BME280;52677;50.898;10.854;2022-12-18T03:09:11;99943.59;;;-14.87;100.00
65897;BME280;52677;50.898;10.854;2022-12-18T03:11:13;99944.34;;;-14.78;100.00
65897;BME280;52677;50.898;10.854;2022-12-18T03:13:25;99939.44;;;-14.66;100.00
65897;BME280;52677;50.898;10.854;2022-12-18T03:15:31;99947.13;;;-14.57;100.00
65897;BME280;52677;50.898;10.854;2022-12-18T03:17:34;99953.66;;;-14.59;100.00
65897;BME280;52677;50.898;10.854;2022-12-18T03:19:37;99961.69;;;-14.67;100.00
65897;BME280;52677;50.898;10.854;2022-12-18T03:21:47;99956.44;;;-14.76;100.00
65897;BME280;52677;50.898;10.854;2022-12-18T03:23:51;99965.31;;;-14.83;100.00
65897;BME280;52677;50.898;10.854;2022-12-18T03:25:57;99952.97;;;-14.99;100.00
65897;BME280;52677;50.898;10.854;2022-12-18T03:28:01;99965.44;;;-14.99;100.00
65897;BME280;52677;50.898;10.854;2022-12-18T03:30:06;99970.47;;;-15.05;100.00
65897;BME280;52677;50.898;10.854;2022-12-18T03:32:11;99961.38;;;-15.10;100.00
65897;BME280;52677;50.898;10.854;2022-12-18T03:34:16;99959.13;;;-15.21;100.00
65897;BME280;52677;50.898;10.854;2022-12-18T03:36:18;99952.50;;;-15.25;100.00
65897;BME280;52677;50.898;10.854;2022-12-18T03:38:19;99950.34;;;-15.22;100.00
65897;BME280;52677;50.898;10.854;2022-12-18T03:40:23;99954.47;;;-15.19;100.00
65897;BME280;52677;50.898;10.854;2022-12-18T03:42:32;99959.00;;;-15.05;100.00
65897;BME280;52677;50.898;10.854;2022-12-18T03:44:44;99963.41;;;-14.97;100.00
65897;BME280;52677;50.898;10.854;2022-12-18T03:47:05;99969.03;;;-14.92;100.00
65897;BME280;52677;50.898;10.854;2022-12-18T03:49:24;99969.91;;;-15.00;100.00
65897;BME280;52677;50.898;10.854;2022-12-18T03:51:32;99967.88;;;-15.13;100.00
65897;BME280;52677;50.898;10.854;2022-12-18T03:53:53;99957.16;;;-15.27;100.00
65897;BME280;52677;50.898;10.854;2022-12-18T03:55:57;99958.69;;;-15.33;100.00
65897;BME280;52677;50.898;10.854;2022-12-18T03:58:00;99959.22;;;-15.38;100.00
65897;BME280;52677;50.898;10.854;2022-12-18T04:00:10;99953.38;;;-15.33;100.00
65897;BME280;52677;50.898;10.854;2022-12-18T04:02:11;99952.91;;;-15.37;100.00
65897;BME280;52677;50.898;10.854;2022-12-18T04:04:13;99962.38;;;-15.42;100.00
65897;BME280;52677;50.898;10.854;2022-12-18T04:06:14;99953.28;;;-15.48;100.00
65897;BME280;52677;50.898;10.854;2022-12-18T04:08:16;99961.28;;;-15.56;100.00
65897;BME280;52677;50.898;10.854;2022-12-18T04:10:17;99951.25;;;-15.61;100.00
65897;BME280;52677;50.898;10.854;2022-12-18T04:12:18;99955.09;;;-15.63;100.00
65897;BME280;52677;50.898;10.854;2022-12-18T04:14:19;99958.56;;;-15.40;100.00
65897;BME280;52677;50.898;10.854;2022-12-18T04:16:19;99959.69;;;-15.34;100.00
65897;BME280;52677;50.898;10.854;2022-12-18T04:18:19;99957.50;;;-15.31;100.00
65897;BME280;52677;50.898;10.854;2022-12-18T04:20:20;99961.78;;;-15.21;100.00
65897;BME280;52677;50.898;10.854;2022-12-18T04:22:20;99950.63;;;-15.17;100.00
65897;BME280;52677;50.898;10.854;2022-12-18T04:24:21;99942.66;;;-14.94;100.00
65897;BME280;52677;50.898;10.854;2022-12-18T04:26:22;99944.53;;;-14.80;100.00
65897;BME280;52677;50.898;10.854;2022-12-18T04:28:22;99952.59;;;-14.73;100.00
65897;BME280;52677;50.898;10.854;2022-12-18T04:30:22;99943.03;;;-14.82;100.00
65897;BME280;52677;50.898;10.854;2022-12-18T04:32:23;99949.75;;;-14.86;100.00
65897;BME280;52677;50.898;10.854;2022-12-18T04:34:23;99963.66;;;-14.84;100.00
65897;BME280;52677;50.898;10.854;2022-12-18T04:36:23;99953.97;;;-15.00;100.00
65897;BME280;52677;50.898;10.854;2022-12-18T04:38:24;99944.59;;;-15.11;100.00
65897;BME280;52677;50.898;10.854;2022-12-18T04:40:24;99948.31;;;-15.20;100.00
65897;BME280;52677;50.898;10.854;2022-12-18T04:42:24;99947.31;;;-15.19;100.00
65897;BME280;52677;50.898;10.854;2022-12-18T04:44:25;99948.13;;;-15.18;100.00
65897;BME280;52677;50.898;10.854;2022-12-18T04:46:25;99954.50;;;-15.27;100.00
65897;BME280;52677;50.898;10.854;2022-12-18T04:48:25;99968.66;;;-15.35;100.00
65897;BME280;52677;50.898;10.854;2022-12-18T04:50:26;99979.50;;;-15.45;100.00
65897;BME280;52677;50.898;10.854;2022-12-18T04:52:27;99973.41;;;-15.53;100.00
65897;BME280;52677;50.898;10.854;2022-12-18T04:54:27;99961.53;;;-15.66;100.00
65897;BME280;52677;50.898;10.854;2022-12-18T04:56:27;99957.09;;;-15.73;100.00
65897;BME280;52677;50.898;10.854;2022-12-18T04:58:28;99967.59;;;-15.80;100.00
65897;BME280;52677;50.898;10.854;2022-12-18T05:00:28;99971.41;;;-15.82;100.00
65897;BME280;52677;50.898;10.854;2022-12-18T05:02:28;99967.44;;;-15.86;100.00
65897;BME280;52677;50.898;10.854;2022-12-18T05:04:29;99973.53;;;-15.78;100.00
65897;BME280;52677;50.898;10.854;2022-12-18T05:06:29;99969.72;;;-15.75;100.00
65897;BME280;52677;50.898;10.854;2022-12-18T05:08:29;99979.97;;;-15.72;100.00
65897;BME280;52677;50.898;10.854;2022-12-18T05:10:30;99970.22;;;-15.72;100.00
65897;BME280;52677;50.898;10.854;2022-12-18T05:12:31;99966.22;;;-15.76;100.00
65897;BME280;52677;50.898;10.854;2022-12-18T05:14:31;99968.06;;;-15.76;100.00
65897;BME280;52677;50.898;10.854;2022-12-18T05:16:31;99960.72;;;-15.66;100.00
65897;BME280;52677;50.898;10.854;2022-12-18T05:18:32;99953.38;;;-15.33;100.00
65897;BME280;52677;50.898;10.854;2022-12-18T05:20:32;99962.38;;;-15.11;100.00
65897;BME280;52677;50.898;10.854;2022-12-18T05:22:33;99969.59;;;-14.97;100.00
65897;BME280;52677;50.898;10.854;2022-12-18T05:24:33;99966.19;;;-14.91;100.00
65897;BME280;52677;50.898;10.854;2022-12-18T05:26:33;99959.84;;;-15.05;100.00
65897;BME280;52677;50.898;10.854;2022-12-18T05:28:35;99963.88;;;-15.17;100.00
65897;BME280;52677;50.898;10.854;2022-12-18T05:30:35;99966.41;;;-15.23;100.00
65897;BME280;52677;50.898;10.854;2022-12-18T05:32:36;99967.72;;;-15.19;100.00
65897;BME280;52677;50.898;10.854;2022-12-18T05:34:36;99965.41;;;-15.22;100.00
65897;BME280;52677;50.898;10.854;2022-12-18T05:36:36;99967.69;;;-15.42;100.00
65897;BME280;52677;50.898;10.854;2022-12-18T05:38:38;99966.28;;;-15.53;100.00
65897;BME280;52677;50.898;10.854;2022-12-18T05:40:41;99973.25;;;-15.60;100.00
65897;BME280;52677;50.898;10.854;2022-12-18T05:42:42;99977.28;;;-15.64;100.00
65897;BME280;52677;50.898;10.854;2022-12-18T05:44:43;99974.84;;;-15.74;100.00
65897;BME280;52677;50.898;10.854;2022-12-18T05:46:43;99982.50;;;-15.79;100.00
65897;BME280;52677;50.898;10.854;2022-12-18T05:48:44;99980.34;;;-15.83;100.00
65897;BME280;52677;50.898;10.854;2022-12-18T05:50:46;99979.16;;;-15.81;100.00
65897;BME280;52677;50.898;10.854;2022-12-18T05:52:47;99985.03;;;-15.54;100.00
65897;BME280;52677;50.898;10.854;2022-12-18T05:54:47;99980.28;;;-15.36;100.00
65897;BME280;52677;50.898;10.854;2022-12-18T05:56:47;99987.00;;;-15.25;100.00
65897;BME280;52677;50.898;10.854;2022-12-18T05:58:51;99993.84;;;-15.31;100.00
65897;BME280;52677;50.898;10.854;2022-12-18T06:00:52;99982.00;;;-15.51;100.00
65897;BME280;52677;50.898;10.854;2022-12-18T06:02:52;99983.47;;;-15.49;100.00
65897;BME280;52677;50.898;10.854;2022-12-18T06:04:52;99982.31;;;-15.46;100.00
65897;BME280;52677;50.898;10.854;2022-12-18T06:06:52;99985.09;;;-15.40;100.00
65897;BME280;52677;50.898;10.854;2022-12-18T06:08:54;99983.91;;;-15.29;100.00
65897;BME280;52677;50.898;10.854;2022-12-18T06:10:54;99990.97;;;-15.21;100.00
65897;BME280;52677;50.898;10.854;2022-12-18T06:12:55;99987.00;;;-15.25;100.00
65897;BME280;52677;50.898;10.854;2022-12-18T06:14:55;99990.03;;;-15.28;100.00
65897;BME280;52677;50.898;10.854;2022-12-18T06:16:55;99987.38;;;-15.28;100.00
65897;BME280;52677;50.898;10.854;2022-12-18T06:18:59;99993.72;;;-15.38;100.00
65897;BME280;52677;50.898;10.854;2022-12-18T06:21:00;99989.56;;;-15.40;100.00
65897;BME280;52677;50.898;10.854;2022-12-18T06:23:00;100002.69;;;-15.39;100.00
65897;BME280;52677;50.898;10.854;2022-12-18T06:25:01;99998.34;;;-15.40;100.00
65897;BME280;52677;50.898;10.854;2022-12-18T06:27:01;100003.66;;;-15.40;100.00
65897;BME280;52677;50.898;10.854;2022-12-18T06:29:02;100004.88;;;-15.50;100.00
65897;BME280;52677;50.898;10.854;2022-12-18T06:31:04;100002.50;;;-15.68;100.00
65897;BME280;52677;50.898;10.854;2022-12-18T06:33:04;100000.25;;;-15.79;100.00
65897;BME280;52677;50.898;10.854;2022-12-18T06:35:05;99995.13;;;-15.89;100.00
65897;BME280;52677;50.898;10.854;2022-12-18T06:37:05;100001.38;;;-15.74;100.00
65897;BME280;52677;50.898;10.854;2022-12-18T06:39:06;99993.78;;;-15.85;100.00
65897;BME280;52677;50.898;10.854;2022-12-18T06:41:16;99997.13;;;-15.99;100.00
65897;BME280;52677;50.898;10.854;2022-12-18T06:43:16;99997.81;;;-16.05;100.00
65897;BME280;52677;50.898;10.854;2022-12-18T06:45:17;99999.91;;;-15.84;100.00
65897;BME280;52677;50.898;10.854;2022-12-18T06:47:18;99992.31;;;-15.87;100.00
65897;BME280;52677;50.898;10.854;2022-12-18T06:49:18;99994.47;;;-15.91;100.00
65897;BME280;52677;50.898;10.854;2022-12-18T06:51:23;99980.72;;;-15.86;100.00
65897;BME280;52677;50.898;10.854;2022-12-18T06:53:23;99980.28;;;-15.67;100.00
65897;BME280;52677;50.898;10.854;2022-12-18T06:55:24;99975.75;;;-15.58;100.00
65897;BME280;52677;50.898;10.854;2022-12-18T06:57:24;99972.66;;;-15.62;100.00
65897;BME280;52677;50.898;10.854;2022-12-18T06:59:25;99971.03;;;-15.71;100.00
65897;BME280;52677;50.898;10.854;2022-12-18T07:01:25;99980.97;;;-15.73;100.00
65897;BME280;52677;50.898;10.854;2022-12-18T07:03:25;99985.19;;;-15.87;100.00
65897;BME280;52677;50.898;10.854;2022-12-18T07:05:26;99989.53;;;-16.02;100.00
65897;BME280;52677;50.898;10.854;2022-12-18T07:07:26;99985.47;;;-15.82;100.00
65897;BME280;52677;50.898;10.854;2022-12-18T07:09:26;99987.94;;;-15.72;100.00
65897;BME280;52677;50.898;10.854;2022-12-18T07:11:27;99987.13;;;-15.50;100.00
65897;BME280;52677;50.898;10.854;2022-12-18T07:13:27;99988.28;;;-15.44;100.00
65897;BME280;52677;50.898;10.854;2022-12-18T07:15:27;99993.91;;;-15.47;100.00
65897;BME280;52677;50.898;10.854;2022-12-18T07:17:28;99994.31;;;-15.58;100.00
65897;BME280;52677;50.898;10.854;2022-12-18T07:19:29;100003.50;;;-15.61;100.00
65897;BME280;52677;50.898;10.854;2022-12-18T07:21:29;100004.09;;;-15.59;100.00
65897;BME280;52677;50.898;10.854;2022-12-18T07:23:31;100005.09;;;-15.60;100.00
65897;BME280;52677;50.898;10.854;2022-12-18T07:25:35;100011.97;;;-15.74;100.00
65897;BME280;52677;50.898;10.854;2022-12-18T07:27:36;100016.00;;;-15.86;100.00
65897;BME280;52677;50.898;10.854;2022-12-18T07:29:36;100021.97;;;-15.92;100.00
65897;BME280;52677;50.898;10.854;2022-12-18T07:31:37;100029.47;;;-16.04;100.00
65897;BME280;52677;50.898;10.854;2022-12-18T07:33:37;100036.94;;;-16.07;100.00
65897;BME280;52677;50.898;10.854;2022-12-18T07:35:38;100030.66;;;-16.14;100.00
65897;BME280;52677;50.898;10.854;2022-12-18T07:37:38;100038.75;;;-16.16;100.00
65897;BME280;52677;50.898;10.854;2022-12-18T07:39:38;100029.34;;;-16.27;100.00
65897;BME280;52677;50.898;10.854;2022-12-18T07:41:39;100035.47;;;-16.26;100.00
65897;BME280;52677;50.898;10.854;2022-12-18T07:43:42;100033.81;;;-16.27;100.00
65897;BME280;52677;50.898;10.854;2022-12-18T07:45:43;100045.91;;;-16.25;100.00
65897;BME280;52677;50.898;10.854;2022-12-18T07:47:43;100055.19;;;-16.21;100.00
65897;BME280;52677;50.898;10.854;2022-12-18T07:49:44;100049.06;;;-16.21;100.00
65897;BME280;52677;50.898;10.854;2022-12-18T07:51:44;100050.38;;;-16.17;100.00
65897;BME280;52677;50.898;10.854;2022-12-18T07:53:49;100051.19;;;-16.08;100.00
65897;BME280;52677;50.898;10.854;2022-12-18T07:55:49;100057.66;;;-16.03;100.00
65897;BME280;52677;50.898;10.854;2022-12-18T07:57:54;100057.13;;;-15.98;100.00
65897;BME280;52677;50.898;10.854;2022-12-18T07:59:54;100053.34;;;-15.96;100.00
65897;BME280;52677;50.898;10.854;2022-12-18T08:01:55;100055.63;;;-15.84;100.00
65897;BME280;52677;50.898;10.854;2022-12-18T08:03:56;100057.91;;;-15.81;100.00
65897;BME280;52677;50.898;10.854;2022-12-18T08:06:01;100074.81;;;-15.74;100.00
65897;BME280;52677;50.898;10.854;2022-12-18T08:08:01;100071.31;;;-15.67;100.00
65897;BME280;52677;50.898;10.854;2022-12-18T08:10:01;100075.94;;;-15.61;100.00
65897;BME280;52677;50.898;10.854;2022-12-18T08:12:02;100077.56;;;-15.60;100.00
65897;BME280;52677;50.898;10.854;2022-12-18T08:14:02;100084.34;;;-15.57;100.00
65897;BME280;52677;50.898;10.854;2022-12-18T08:16:06;100079.59;;;-15.62;100.00
65897;BME280;52677;50.898;10.854;2022-12-18T08:18:07;100075.56;;;-15.57;100.00
65897;BME280;52677;50.898;10.854;2022-12-18T08:20:08;100077.38;;;-15.58;100.00
65897;BME280;52677;50.898;10.854;2022-12-18T08:22:08;100073.91;;;-15.58;100.00
65897;BME280;52677;50.898;10.854;2022-12-18T08:24:09;100067.16;;;-15.61;100.00
65897;BME280;52677;50.898;10.854;2022-12-18T08:26:10;100073.72;;;-15.57;100.00
65897;BME280;52677;50.898;10.854;2022-12-18T08:28:11;100079.38;;;-15.52;100.00
65897;BME280;52677;50.898;10.854;2022-12-18T08:30:12;100070.06;;;-15.48;100.00
65897;BME280;52677;50.898;10.854;2022-12-18T08:32:12;100066.03;;;-15.36;100.00
65897;BME280;52677;50.898;10.854;2022-12-18T08:34:12;100064.50;;;-15.22;100.00
65897;BME280;52677;50.898;10.854;2022-12-18T08:36:13;100059.47;;;-15.17;100.00
65897;BME280;52677;50.898;10.854;2022-12-18T08:38:13;100052.00;;;-15.13;100.00
65897;BME280;52677;50.898;10.854;2022-12-18T08:40:13;100041.03;;;-15.10;100.00
65897;BME280;52677;50.898;10.854;2022-12-18T08:42:14;100039.50;;;-15.05;100.00
65897;BME280;52677;50.898;10.854;2022-12-18T08:44:33;100045.09;;;-14.99;100.00
65897;BME280;52677;50.898;10.854;2022-12-18T08:46:41;100045.38;;;-14.86;100.00
65897;BME280;52677;50.898;10.854;2022-12-18T08:48:41;100033.50;;;-14.76;100.00
65897;BME280;52677;50.898;10.854;2022-12-18T08:50:42;100036.91;;;-14.67;100.00
65897;BME280;52677;50.898;10.854;2022-12-18T08:52:42;100033.88;;;-14.56;100.00
65897;BME280;52677;50.898;10.854;2022-12-18T08:54:43;100042.13;;;-14.51;100.00
65897;BME280;52677;50.898;10.854;2022-12-18T08:56:43;100044.16;;;-14.38;100.00
65897;BME280;52677;50.898;10.854;2022-12-18T08:58:43;100042.81;;;-14.19;100.00
65897;BME280;52677;50.898;10.854;2022-12-18T09:00:44;100035.59;;;-14.10;100.00
65897;BME280;52677;50.898;10.854;2022-12-18T09:02:44;100038.88;;;-14.08;100.00
65897;BME280;52677;50.898;10.854;2022-12-18T09:04:47;100030.28;;;-14.10;100.00
65897;BME280;52677;50.898;10.854;2022-12-18T09:06:47;100034.47;;;-14.16;100.00
65897;BME280;52677;50.898;10.854;2022-12-18T09:08:48;100037.44;;;-14.11;100.00
65897;BME280;52677;50.898;10.854;2022-12-18T09:10:49;100047.25;;;-14.11;100.00
65897;BME280;52677;50.898;10.854;2022-12-18T09:12:50;100036.03;;;-14.07;100.00
65897;BME280;52677;50.898;10.854;2022-12-18T09:14:50;100040.47;;;-13.99;100.00
65897;BME280;52677;50.898;10.854;2022-12-18T09:16:51;100039.75;;;-13.93;100.00
65897;BME280;52677;50.898;10.854;2022-12-18T09:18:51;100041.03;;;-13.89;100.00
65897;BME280;52677;50.898;10.854;2022-12-18T09:20:53;100033.50;;;-13.85;100.00
65897;BME280;52677;50.898;10.854;2022-12-18T09:22:54;100034.81;;;-13.81;100.00
65897;BME280;52677;50.898;10.854;2022-12-18T09:24:54;100030.13;;;-13.79;100.00
65897;BME280;52677;50.898;10.854;2022-12-18T09:26:55;100029.22;;;-13.72;100.00
65897;BME280;52677;50.898;10.854;2022-12-18T09:28:55;100018.63;;;-13.65;100.00
65897;BME280;52677;50.898;10.854;2022-12-18T09:30:56;100019.56;;;-13.58;100.00
65897;BME280;52677;50.898;10.854;2022-12-18T09:32:56;100022.69;;;-13.54;100.00
65897;BME280;52677;50.898;10.854;2022-12-18T09:34:56;100013.50;;;-13.52;100.00
65897;BME280;52677;50.898;10.854;2022-12-18T09:36:57;100009.47;;;-13.48;100.00
65897;BME280;52677;50.898;10.854;2022-12-18T09:38:57;100002.13;;;-13.46;100.00
65897;BME280;52677;50.898;10.854;2022-12-18T09:41:05;99993.75;;;-13.43;100.00
65897;BME280;52677;50.898;10.854;2022-12-18T09:43:06;99994.22;;;-13.39;100.00
65897;BME280;52677;50.898;10.854;2022-12-18T09:45:13;99994.66;;;-13.36;100.00
65897;BME280;52677;50.898;10.854;2022-12-18T09:47:34;99986.13;;;-13.31;100.00
65897;BME280;52677;50.898;10.854;2022-12-18T09:49:43;99982.53;;;-13.23;100.00
65897;BME280;52677;50.898;10.854;2022-12-18T09:51:47;99981.38;;;-13.14;100.00
65897;BME280;52677;50.898;10.854;2022-12-18T09:54:02;99989.25;;;-13.06;100.00
65897;BME280;52677;50.898;10.854;2022-12-18T09:56:04;99984.78;;;-12.99;100.00
65897;BME280;52677;50.898;10.854;2022-12-18T09:58:35;99988.09;;;-12.97;100.00
65897;BME280;52677;50.898;10.854;2022-12-18T10:00:37;99980.34;;;-12.92;100.00
65897;BME280;52677;50.898;10.854;2022-12-18T10:02:37;99977.94;;;-12.87;100.00
65897;BME280;52677;50.898;10.854;2022-12-18T10:04:38;99970.84;;;-12.80;100.00
65897;BME280;52677;50.898;10.854;2022-12-18T10:06:40;99971.94;;;-12.74;100.00
65897;BME280;52677;50.898;10.854;2022-12-18T10:10:53;99962.66;;;-12.57;100.00
65897;BME280;52677;50.898;10.854;2022-12-18T10:19:25;99962.72;;;-12.22;100.00
65897;BME280;52677;50.898;10.854;2022-12-18T10:26:32;99951.38;;;-11.96;100.00
65897;BME280;52677;50.898;10.854;2022-12-18T10:28:36;99941.78;;;-11.84;100.00
65897;BME280;52677;50.898;10.854;2022-12-18T10:30:38;99948.59;;;-11.75;100.00
65897;BME280;52677;50.898;10.854;2022-12-18T10:32:39;99957.91;;;-11.64;100.00
65897;BME280;52677;50.898;10.854;2022-12-18T10:34:39;99963.06;;;-11.56;100.00
65897;BME280;52677;50.898;10.854;2022-12-18T10:36:40;99979.53;;;-11.46;100.00
65897;BME280;52677;50.898;10.854;2022-12-18T10:38:41;99972.00;;;-11.29;100.00
65897;BME280;52677;50.898;10.854;2022-12-18T10:43:10;99963.28;;;-10.96;100.00
65897;BME280;52677;50.898;10.854;2022-12-18T10:45:14;99963.91;;;-10.88;100.00
65897;BME280;52677;50.898;10.854;2022-12-18T10:47:17;99965.78;;;-10.75;100.00
65897;BME280;52677;50.898;10.854;2022-12-18T10:49:30;99960.03;;;-10.65;100.00